• Join FlightAware (Why Join?)
  • Login
  • US Flag 
07:20AM EST


 

Airport Tracker/Info


-or-


 

Live Flight TrackerFlight Track Log ✈ AWE2180 ✈ 18-Apr-2013 ✈ KDCA - KLGA

Flight Track Log - Related Links

Times and Time Zones

All times are in EDT time to prevent confusion due to time zone crossing. See the AWE2180 flight status page for this flight to view local times or setup timezone preferences in your user account.

Time Position Orientation Groundspeed Altitude Reporting Facility
EDT Latitude Longitude Course Direction KTS MPH feet Rate Location/Type
05:14PM 38.8167 -77.0333 74° East 146 168 2,400  Level Potomac TRACON
05:16PM 38.7867 -76.9578 117° Southeast 138 159 6,400 2,408 Climbing Washington Center
05:17PM 38.9385 -76.6678 67° East  Level FlightAware Approximate
05:17PM 38.8356 -76.8814 51° Northeast 173 199 8,700  Level Washington Center
05:18PM 38.9690 -76.5739 72° East  Level FlightAware Approximate
05:18PM 38.8742 -76.7756 65° Northeast 253 291 11,100  Level Washington Center
05:19PM 38.9923 -76.4765 74° East  Level FlightAware Approximate
05:19PM 38.9211 -76.6508 64° Northeast 331 381 13,100  Level Washington Center
05:20PM 39.0140 -76.3786 74° East  Level FlightAware Approximate
05:20PM 38.9681 -76.5233 65° Northeast 366 421 16,100  Level Washington Center
05:21PM 39.0169 -76.3931 64° Northeast 389 448 18,300 2,150 Climbing Washington Center
05:22PM 39.0303 -76.2436 83° East 404 465 20,400 1,350 Climbing Washington Center
05:23PM 39.0436 -76.1075 83° East 412 474 21,000 300 Climbing Washington Center
05:24PM 39.0483 -75.9525 88° East 418 481 21,000  Level Washington Center
05:25PM 39.0569 -75.8000 86° East 424 488 21,000  Level Washington Center
05:26PM 39.1156 -75.6744 59° Northeast 411 473 21,000  Level Washington Center
05:27PM 39.1989 -75.5594 47° Northeast 406 467 21,000  Level Washington Center
05:28PM 39.2947 -75.4628 38° Northeast 425 489 21,000  Level Washington Center
05:29PM 39.3925 -75.3742 35° Northeast 425 489 21,000 -50 Level Washington Center
05:30PM 39.4922 -75.2850 35° Northeast 425 489 20,900 -600 Descending Washington Center
05:31PM 39.5900 -75.1956 35° Northeast 431 496 19,800 -1,550 Descending Washington Center
05:32PM 39.6875 -75.1033 36° Northeast 431 496 17,800 -1,900 Descending Washington Center
05:33PM 39.7914 -75.0164 33° Northeast 418 481 16,000 -1,950 Descending Washington Center
05:34PM 39.8847 -74.9344 34° Northeast 413 475 13,900 -1,924 Descending Washington Center
05:35PM 39.9833 -74.8167 42° Northeast 388 447 11,800 -1,466 Descending New York TRACON
05:36PM 40.0500 -74.7167 49° Northeast 378 435 10,700 -900 Descending New York TRACON
05:37PM 40.1167 -74.6167 49° Northeast 374 430 10,000 -333 Descending New York TRACON
05:38PM 40.2000 -74.5000 47° Northeast 374 430 10,000  Level New York TRACON
05:39PM 40.2667 -74.4167 44° Northeast 370 426 10,000 -105 Level New York TRACON
05:40PM 40.3333 -74.3333 44° Northeast 335 386 9,800 -895 Descending New York TRACON
05:41PM 40.4000 -74.2500 44° Northeast 313 360 8,300 -1,450 Descending New York TRACON
05:42PM 40.4667 -74.1667 44° Northeast 307 353 6,900 -1,476 Descending New York TRACON
05:43PM 40.5500 -74.1167 25° Northeast 301 346 5,200 -1,333 Descending New York TRACON
05:44PM 40.6167 -74.0667 30° Northeast 290 334 4,100 -632 Descending New York TRACON
05:45PM 40.6833 -74.0333 21° North 287 330 4,000 -263 Descending New York TRACON
05:46PM 40.7500 -73.9833 30° Northeast 288 331 3,600 -500 Descending New York TRACON
05:47PM 40.8167 -73.9333 30° Northeast 259 298 3,000 -300 Descending New York TRACON
05:48PM 40.8667 -73.9000 27° Northeast 207 238 3,000 -429 Level New York TRACON
05:49PM 40.9333 -73.8667 21° North 206 237 2,100 -500 Descending New York TRACON
05:50PM 40.9167 -73.8167 114° Southeast 172 198 2,000 -111 Descending New York TRACON